• NOTAM LFRU

     20/01 02:01Z - 28/04/23 06:00Z
    GRUE A TOUR A MORLAIX - RDL180/0.31NM ARP LFRU : - PSN : 483544.60N 0034859.80W - HAUTEUR : 91FT - ALTITUDE : 373FT - BALISAGE : JOUR ET NUIT.











  • PHOTOS SATELLITE

CARTE TEMSI

CARTE WINTEM

  • Vent au sol

  • Vent à 2000ft

  • ANIMATION RADAR

  • METAR/TAF LFRU (MORLAIX / Ploujean)

    LFRU 131000Z AUTO 26010KT 9999 OVC034 09/06 Q1019

    METAR/TAF LFRB (BREST / Guipavas)

    LFRB 051100Z AUTO 05008KT CAVOK 11/09 Q1044 NOSIG

    TAF LFRB 170500Z 1706/1812 30010KT 9999 BKN030 TEMPO 1706/1716 4000 SHRAGS BKN012CB PROB40 TEMPO 1706/1713 2000 TSRAGS BKN008 TEMPO 1706/1709 30015G25KT BECMG 1709/1711 35015G25KT TEMPO 1709/1715 36020G35KT BECMG 1718/1720 36013KT TEMPO 1800/1812 36015G30KT 4000 SHRAGS BKN008 BKN015CB PROB40 TEMPO 1800/1812 2000 TSRAGS

    METAR/TAF LFRO (LANNION / Servel)

    Aucun METAR

RESERVATION

  • COMM' FFA

    Brevet d’Initiation Aéronautique (BIA) c’est le moment de vous inscrire !

    Les inscriptions à l'examen sont ouvertes. Vous avez jusqu’au 8 mars 2023 pour vous inscrire à l’examen via l'application Cyclades.

    Les épreuves du BIA se dérouleront le mercredi 31 mai 2023 à 14 heures (mercredi 8 novembre 2023 pour la Polynésie française et la Nouvelle-Calédonie).